createdAt,value
2024-05-09T00:01:52.447Z,7.96
2024-05-09T00:04:22.322Z,7.94
2024-05-09T00:06:54.640Z,7.90
2024-05-09T00:09:24.272Z,7.85
2024-05-09T00:11:53.988Z,7.79
2024-05-09T00:14:23.765Z,7.71
2024-05-09T00:16:53.471Z,7.68
2024-05-09T00:19:23.651Z,7.64
2024-05-09T00:21:55.978Z,7.60
2024-05-09T00:24:25.583Z,7.56
2024-05-09T00:26:55.168Z,7.53
2024-05-09T00:29:25.060Z,7.46
2024-05-09T00:31:54.829Z,7.40
2024-05-09T00:34:26.632Z,7.35
2024-05-09T00:36:59.179Z,7.34
2024-05-09T00:39:28.780Z,7.31
2024-05-09T00:41:59.644Z,7.29
2024-05-09T00:44:29.321Z,7.27
2024-05-09T00:46:59.076Z,7.24
2024-05-09T00:49:29.673Z,7.22
2024-05-09T00:52:02.372Z,7.23
2024-05-09T00:54:32.399Z,7.22
2024-05-09T00:57:02.133Z,7.21
2024-05-09T00:59:32.858Z,7.18
2024-05-09T01:02:03.289Z,7.17
2024-05-09T01:04:33.053Z,7.15
2024-05-09T01:07:05.334Z,7.11
2024-05-09T01:09:35.000Z,7.06
2024-05-09T01:12:04.656Z,7.02
2024-05-09T01:14:34.383Z,6.95
2024-05-09T01:17:04.070Z,6.88
2024-05-09T01:19:34.361Z,6.85
2024-05-09T01:22:08.055Z,6.82
2024-05-09T01:24:40.416Z,6.83
2024-05-09T01:27:10.000Z,6.82
2024-05-09T01:29:39.599Z,6.81
2024-05-09T01:32:09.532Z,6.77
2024-05-09T01:34:39.204Z,6.74
2024-05-09T01:37:08.840Z,6.71
2024-05-09T01:39:41.149Z,6.64
2024-05-09T01:42:10.755Z,6.56
2024-05-09T01:44:40.316Z,6.51
2024-05-09T01:47:10.184Z,6.46
2024-05-09T01:49:40.142Z,6.41
2024-05-09T01:52:09.861Z,6.38
2024-05-09T01:54:42.122Z,6.37
2024-05-09T01:57:11.761Z,6.38
2024-05-09T01:59:41.416Z,6.38
2024-05-09T02:02:11.294Z,6.37
2024-05-09T02:04:41.269Z,6.34
2024-05-09T02:07:10.867Z,6.34
2024-05-09T02:09:43.256Z,6.30
2024-05-09T02:12:13.015Z,6.29
2024-05-09T02:14:42.911Z,6.30
2024-05-09T02:17:12.556Z,6.28
2024-05-09T02:19:42.234Z,6.28
2024-05-09T02:22:11.840Z,6.27
2024-05-09T02:24:44.137Z,6.25
2024-05-09T02:27:13.681Z,6.24
2024-05-09T02:29:43.300Z,6.24
2024-05-09T02:32:13.019Z,6.22
2024-05-09T02:34:42.684Z,6.17
2024-05-09T02:37:12.319Z,6.16
2024-05-09T02:39:41.968Z,6.13
2024-05-09T02:42:11.560Z,6.12
2024-05-09T02:44:38.589Z,6.12
2024-05-09T02:47:08.454Z,6.10
2024-05-09T02:49:37.536Z,6.08
2024-05-09T02:52:07.828Z,6.03
2024-05-09T02:54:34.797Z,5.99
2024-05-09T02:57:07.266Z,5.95
2024-05-09T02:59:34.344Z,5.94
2024-05-09T03:02:04.023Z,5.92
2024-05-09T03:04:31.324Z,5.92
2024-05-09T03:07:01.179Z,5.86
2024-05-09T03:09:28.145Z,5.82
2024-05-09T03:11:57.840Z,5.79
2024-05-09T03:14:27.636Z,5.77
2024-05-09T03:16:57.463Z,5.77
2024-05-09T03:19:24.544Z,5.76
2024-05-09T03:21:54.147Z,5.74
2024-05-09T03:24:21.168Z,5.73
2024-05-09T03:26:51.656Z,5.71
2024-05-09T03:29:19.054Z,5.69
2024-05-09T03:31:51.445Z,5.67
2024-05-09T03:34:18.560Z,5.64
2024-05-09T03:36:48.196Z,5.60
2024-05-09T03:39:17.835Z,5.55
2024-05-09T03:41:47.454Z,5.53
2024-05-09T03:44:14.549Z,5.51
2024-05-09T03:46:44.376Z,5.51
2024-05-09T03:49:14.450Z,5.48
2024-05-09T03:51:44.209Z,5.48
2024-05-09T03:54:11.251Z,5.44
2024-05-09T03:56:40.877Z,5.41
2024-05-09T03:59:08.104Z,5.41
2024-05-09T04:01:37.833Z,5.38
2024-05-09T04:04:05.151Z,5.37
2024-05-09T04:06:37.478Z,5.36
2024-05-09T04:09:05.349Z,5.37
2024-05-09T04:11:35.333Z,5.37
2024-05-09T04:14:02.426Z,5.39
2024-05-09T04:16:32.014Z,5.39
2024-05-09T04:18:59.091Z,5.39
2024-05-09T04:21:28.846Z,5.37
2024-05-09T04:23:58.516Z,5.36
2024-05-09T04:26:28.186Z,5.37
2024-05-09T04:28:55.560Z,5.38
2024-05-09T04:31:25.212Z,5.38
2024-05-09T04:33:55.004Z,5.42
2024-05-09T04:36:22.056Z,5.45
2024-05-09T04:38:51.676Z,5.46
2024-05-09T04:41:21.320Z,5.50
2024-05-09T04:43:51.738Z,5.53
2024-05-09T04:46:18.739Z,5.58
2024-05-09T04:48:48.990Z,5.61
2024-05-09T04:51:16.275Z,5.64
2024-05-09T04:53:45.957Z,5.65
2024-05-09T04:56:13.092Z,5.69
2024-05-09T04:58:45.369Z,5.72
2024-05-09T05:01:12.400Z,5.75
2024-05-09T05:03:42.222Z,5.80
2024-05-09T05:06:09.506Z,5.84
2024-05-09T05:08:40.442Z,5.89
2024-05-09T05:11:07.667Z,5.91
2024-05-09T05:13:40.836Z,5.96
2024-05-09T05:16:11.193Z,6.02
2024-05-09T05:18:40.755Z,6.08
2024-05-09T05:21:08.033Z,6.14
2024-05-09T05:23:37.680Z,6.19
2024-05-09T05:26:05.560Z,6.25
2024-05-09T05:28:35.252Z,6.30
2024-05-09T05:31:02.234Z,6.37
2024-05-09T05:33:34.519Z,6.43
2024-05-09T05:36:01.637Z,6.48
2024-05-09T05:38:31.304Z,6.54
2024-05-09T05:40:58.441Z,6.60
2024-05-09T05:43:29.599Z,6.70
2024-05-09T05:45:56.655Z,6.76
2024-05-09T05:48:26.398Z,6.81
2024-05-09T05:50:56.115Z,6.87
2024-05-09T05:53:25.913Z,6.96
2024-05-09T05:55:53.036Z,7.01
2024-05-09T05:58:22.952Z,7.08
2024-05-09T06:00:53.106Z,7.13
2024-05-09T06:03:22.893Z,7.19
2024-05-09T06:05:50.013Z,7.28
2024-05-09T06:08:22.394Z,7.36
2024-05-09T06:10:49.587Z,7.43
2024-05-09T06:13:20.512Z,7.50
2024-05-09T06:15:47.442Z,7.59
2024-05-09T06:18:17.684Z,7.67
2024-05-09T06:20:45.065Z,7.75
2024-05-09T06:23:14.866Z,7.84
2024-05-09T06:25:44.781Z,7.92
2024-05-09T06:28:14.451Z,8.00
2024-05-09T06:30:42.761Z,8.10
2024-05-09T06:33:15.778Z,8.18
2024-05-09T06:35:44.348Z,8.27
2024-05-09T06:38:14.614Z,8.35
2024-05-09T06:40:44.895Z,8.43
2024-05-09T06:43:17.347Z,8.50
2024-05-09T06:45:47.144Z,8.59
2024-05-09T06:48:17.237Z,8.67
2024-05-09T06:50:44.398Z,8.76
2024-05-09T06:53:17.322Z,8.84
2024-05-09T06:55:47.146Z,8.93
2024-05-09T06:58:16.991Z,9.01
2024-05-09T07:00:44.048Z,9.11
2024-05-09T07:03:17.137Z,9.24
2024-05-09T07:05:47.089Z,9.34
2024-05-09T07:08:18.022Z,9.45
2024-05-09T07:10:47.920Z,9.53
2024-05-09T07:13:17.887Z,9.62
2024-05-09T07:15:45.074Z,9.71
2024-05-09T07:18:18.332Z,9.78
2024-05-09T07:20:47.044Z,9.89
2024-05-09T07:23:17.145Z,9.97
2024-05-09T07:25:47.761Z,10.11
2024-05-09T07:28:18.675Z,10.20
2024-05-09T07:30:46.343Z,10.31
2024-05-09T07:33:20.023Z,10.44
2024-05-09T07:35:48.710Z,10.57
2024-05-09T07:38:18.439Z,10.68
2024-05-09T07:40:48.264Z,10.82
2024-05-09T07:43:18.271Z,10.96
2024-05-09T07:45:52.334Z,11.08
2024-05-09T07:52:38.615Z,11.38
2024-05-09T07:53:49.240Z,11.49
2024-05-09T07:56:23.438Z,11.63
2024-05-09T07:58:55.538Z,11.83
2024-05-09T08:01:25.812Z,12.00
2024-05-09T08:03:56.085Z,12.16
2024-05-09T08:06:23.969Z,12.33
2024-05-09T08:08:53.653Z,12.49
2024-05-09T08:11:23.844Z,12.69
2024-05-09T08:13:53.527Z,12.89
2024-05-09T08:16:20.688Z,13.07
2024-05-09T08:18:51.581Z,13.24
2024-05-09T08:21:19.392Z,13.52
2024-05-09T08:23:49.132Z,13.71
2024-05-09T08:26:16.180Z,13.93
2024-05-09T08:28:48.410Z,14.16
2024-05-09T08:31:15.776Z,14.36
2024-05-09T08:33:50.528Z,14.57
2024-05-09T08:36:17.832Z,14.74
2024-05-09T08:38:47.459Z,14.86
2024-05-09T08:41:15.399Z,14.98
2024-05-09T08:43:49.800Z,15.09
2024-05-09T08:46:18.680Z,15.22
2024-05-09T08:48:50.753Z,15.35
2024-05-09T08:51:18.003Z,15.47
2024-05-09T08:53:47.710Z,15.58
2024-05-09T08:56:16.540Z,15.73
2024-05-09T08:58:52.009Z,15.89
2024-05-09T09:01:19.739Z,16.05
2024-05-09T09:03:51.336Z,16.20
2024-05-09T09:06:21.830Z,16.32
2024-05-09T09:08:51.718Z,16.46
2024-05-09T09:11:18.920Z,16.57
2024-05-09T09:13:51.991Z,16.70
2024-05-09T09:16:19.154Z,16.79
2024-05-09T09:18:49.913Z,16.88
2024-05-09T09:21:17.946Z,16.96
2024-05-09T09:23:47.553Z,17.05
2024-05-09T09:26:16.181Z,17.12
2024-05-09T09:28:46.323Z,17.25
2024-05-09T09:31:17.809Z,17.37
2024-05-09T09:33:47.879Z,17.46
2024-05-09T09:36:15.173Z,17.53
2024-05-09T09:38:45.396Z,17.54
2024-05-09T09:41:13.312Z,17.64
2024-05-09T09:43:43.859Z,17.71
2024-05-09T09:46:12.999Z,17.80
2024-05-09T09:48:47.110Z,17.88
2024-05-09T09:51:15.130Z,17.94
2024-05-09T09:53:46.740Z,18.03
2024-05-09T09:56:17.343Z,18.11
2024-05-09T09:58:48.185Z,18.20
2024-05-09T10:01:15.356Z,18.28
2024-05-09T10:03:48.243Z,18.41
2024-05-09T10:06:16.239Z,18.43
2024-05-09T10:08:47.828Z,18.51
2024-05-09T10:11:20.161Z,18.59
2024-05-09T10:13:49.757Z,18.66
2024-05-09T10:16:21.097Z,18.75
2024-05-09T10:18:53.700Z,18.87
2024-05-09T10:21:21.601Z,18.96
2024-05-09T10:24:01.831Z,19.07
2024-05-09T10:26:33.183Z,19.18
2024-05-09T10:29:03.428Z,19.29
2024-05-09T10:31:30.891Z,19.37
2024-05-09T10:34:03.604Z,19.46
2024-05-09T10:36:30.924Z,19.52
2024-05-09T10:39:02.543Z,19.49
2024-05-09T10:41:29.569Z,19.56
2024-05-09T10:43:59.204Z,19.62
2024-05-09T10:46:26.337Z,19.65
2024-05-09T10:48:56.154Z,19.65
2024-05-09T10:51:25.931Z,19.72
2024-05-09T10:53:56.995Z,19.78
2024-05-09T10:56:23.983Z,19.81
2024-05-09T10:58:54.723Z,19.85
2024-05-09T11:01:21.837Z,19.87
2024-05-09T11:03:51.970Z,19.89
2024-05-09T11:06:19.069Z,19.95
2024-05-09T11:08:51.566Z,20.04
2024-05-09T11:11:18.881Z,20.13
2024-05-09T11:13:48.534Z,20.19
2024-05-09T11:16:20.872Z,20.25
2024-05-09T11:18:58.974Z,20.28
2024-05-09T11:21:26.909Z,20.30
2024-05-09T11:23:59.968Z,20.36
2024-05-09T11:26:29.381Z,20.41
2024-05-09T11:28:59.099Z,20.47
2024-05-09T11:31:26.500Z,20.47
2024-05-09T11:33:57.359Z,20.52
2024-05-09T11:36:24.456Z,20.49
2024-05-09T11:38:54.113Z,20.53
2024-05-09T11:41:24.412Z,20.59
2024-05-09T11:43:54.044Z,20.60
2024-05-09T11:46:21.158Z,20.60
2024-05-09T11:48:50.911Z,20.61
2024-05-09T11:51:18.046Z,20.64
2024-05-09T11:53:47.672Z,20.70
2024-05-09T11:56:15.517Z,20.82
2024-05-09T11:58:47.820Z,20.86
2024-05-09T12:01:14.734Z,20.89
2024-05-09T12:03:44.501Z,20.83
2024-05-09T12:06:11.813Z,20.87
2024-05-09T12:08:41.637Z,21.00
2024-05-09T12:11:08.761Z,21.11
2024-05-09T12:13:38.537Z,21.09
2024-05-09T12:16:08.808Z,21.14
2024-05-09T12:18:38.522Z,21.23
2024-05-09T12:21:06.123Z,21.33
2024-05-09T12:23:35.712Z,21.22
2024-05-09T12:26:03.099Z,21.16
2024-05-09T12:28:32.837Z,21.21
2024-05-09T12:30:59.872Z,21.28
2024-05-09T12:33:32.383Z,21.24
2024-05-09T12:35:59.582Z,21.21
2024-05-09T12:38:29.389Z,21.33
2024-05-09T12:40:56.521Z,21.41
2024-05-09T12:43:26.582Z,21.48
2024-05-09T12:45:53.760Z,21.50
2024-05-09T12:48:23.645Z,21.43
2024-05-09T12:50:55.123Z,21.44
2024-05-09T12:53:24.858Z,21.38
2024-05-09T12:55:56.929Z,21.39
2024-05-09T12:58:29.999Z,21.52
2024-05-09T13:00:57.106Z,21.51
2024-05-09T13:03:26.889Z,21.36
2024-05-09T13:05:56.659Z,21.22
2024-05-09T13:08:26.418Z,21.05
2024-05-09T13:10:53.866Z,20.79
2024-05-09T13:13:23.594Z,20.84
2024-05-09T13:15:50.675Z,20.97
2024-05-09T13:18:20.431Z,21.23
2024-05-09T13:20:47.491Z,21.50
2024-05-09T13:23:19.744Z,21.73
2024-05-09T13:25:46.866Z,21.93
2024-05-09T13:28:16.829Z,22.19
2024-05-09T13:30:44.051Z,22.33
2024-05-09T13:33:14.743Z,22.42
2024-05-09T13:35:46.932Z,22.34
2024-05-09T13:38:22.460Z,22.43
2024-05-09T13:40:50.531Z,22.41
2024-05-09T13:43:22.016Z,22.58
2024-05-09T13:45:49.630Z,22.56
2024-05-09T13:48:19.879Z,22.34
2024-05-09T13:50:47.262Z,22.13
2024-05-09T13:53:17.000Z,21.87
2024-05-09T13:55:46.754Z,21.63
2024-05-09T13:58:16.689Z,21.55
2024-05-09T14:00:48.202Z,21.75
2024-05-09T14:03:21.074Z,22.08
2024-05-09T14:05:50.095Z,22.41
2024-05-09T14:08:22.464Z,22.54
2024-05-09T14:10:53.639Z,22.59
2024-05-09T14:13:23.591Z,22.79
2024-05-09T14:15:50.876Z,23.08
2024-05-09T14:18:20.771Z,23.28
2024-05-09T14:20:47.875Z,23.42
2024-05-09T14:23:17.782Z,23.58
2024-05-09T14:25:46.571Z,23.74
2024-05-09T14:28:20.682Z,23.92
2024-05-09T14:30:47.785Z,24.06
2024-05-09T14:33:23.687Z,24.02
2024-05-09T14:35:50.807Z,24.06
2024-05-09T14:38:20.489Z,24.09
2024-05-09T14:40:48.055Z,24.14
2024-05-09T14:43:21.280Z,24.23
2024-05-09T14:45:48.414Z,24.42
2024-05-09T14:48:19.992Z,24.55
2024-05-09T14:50:46.986Z,24.59
2024-05-09T14:53:16.665Z,24.64
2024-05-09T14:55:44.123Z,24.73
2024-05-09T14:58:14.372Z,24.74
2024-05-09T15:00:50.096Z,24.90
2024-05-09T15:03:22.303Z,24.91
2024-05-09T15:05:50.502Z,24.83
2024-05-09T15:08:21.136Z,24.42
2024-05-09T15:10:50.270Z,24.42
2024-05-09T15:13:20.803Z,24.44
2024-05-09T15:15:50.885Z,24.69
2024-05-09T15:18:20.814Z,24.87
2024-05-09T15:20:48.455Z,25.14
2024-05-09T15:23:18.261Z,25.23
2024-05-09T15:25:45.364Z,25.28
2024-05-09T15:28:15.211Z,24.94
2024-05-09T15:30:46.127Z,24.82
2024-05-09T15:33:19.685Z,24.82
2024-05-09T15:35:47.097Z,24.90
2024-05-09T15:38:18.370Z,24.76
2024-05-09T15:40:45.846Z,24.60
2024-05-09T15:43:15.779Z,24.51
2024-05-09T15:45:42.908Z,24.55
2024-05-09T15:48:13.343Z,24.55
2024-05-09T15:50:43.477Z,24.48
2024-05-09T15:53:14.030Z,24.47
2024-05-09T15:55:41.595Z,24.41
2024-05-09T15:58:11.602Z,24.26
2024-05-09T16:00:42.109Z,24.40
2024-05-09T16:03:14.732Z,24.59
2024-05-09T16:05:45.796Z,24.66
2024-05-09T16:08:17.320Z,24.62
2024-05-09T16:10:46.122Z,24.52
2024-05-09T16:13:17.871Z,24.56
2024-05-09T16:15:45.366Z,24.30
2024-05-09T16:18:15.436Z,23.90
2024-05-09T16:20:48.444Z,23.76
2024-05-09T16:23:19.924Z,23.56
2024-05-09T16:25:48.239Z,23.39
2024-05-09T16:28:18.748Z,23.25
2024-05-09T16:30:45.978Z,23.13
2024-05-09T16:33:19.068Z,22.89
2024-05-09T16:35:49.214Z,22.64
2024-05-09T16:38:19.036Z,22.52
2024-05-09T16:40:46.883Z,22.36
2024-05-09T16:43:17.216Z,22.19
2024-05-09T16:45:44.916Z,22.02
2024-05-09T16:48:15.561Z,21.83
2024-05-09T16:50:43.076Z,21.66
2024-05-09T16:53:16.305Z,21.39
2024-05-09T16:55:43.322Z,21.31
2024-05-09T16:58:13.292Z,21.20
2024-05-09T17:00:43.296Z,21.08
2024-05-09T17:03:16.099Z,20.94
2024-05-09T17:05:45.473Z,20.84
2024-05-09T17:08:18.456Z,20.69
2024-05-09T17:10:45.856Z,20.58
2024-05-09T17:13:15.759Z,20.43
2024-05-09T17:15:45.517Z,20.36
2024-05-09T17:18:15.688Z,20.30
2024-05-09T17:20:42.864Z,20.20
2024-05-09T17:23:14.050Z,20.15
2024-05-09T17:25:44.170Z,20.10
2024-05-09T17:28:14.238Z,20.04
2024-05-09T17:30:42.608Z,20.00
2024-05-09T17:33:13.423Z,19.91
2024-05-09T17:35:45.792Z,19.83
2024-05-09T17:38:12.893Z,19.77
2024-05-09T17:40:42.551Z,19.71
2024-05-09T17:43:12.876Z,19.62
2024-05-09T17:45:42.780Z,19.50
2024-05-09T17:48:11.395Z,19.41
2024-05-09T17:50:42.306Z,19.31
2024-05-09T17:53:10.394Z,19.23
2024-05-09T17:55:40.725Z,19.11
2024-05-09T17:58:08.405Z,18.96
2024-05-09T18:00:42.393Z,18.84
2024-05-09T18:03:12.215Z,18.67
2024-05-09T18:05:44.504Z,18.57
2024-05-09T18:08:12.585Z,18.43
2024-05-09T18:10:43.240Z,18.32
2024-05-09T18:13:11.597Z,18.27
2024-05-09T18:15:45.212Z,18.16
2024-05-09T18:18:13.275Z,18.06
2024-05-09T18:20:45.564Z,17.92
2024-05-09T18:23:16.029Z,17.82
2024-05-09T18:25:48.009Z,17.74
2024-05-09T18:28:15.651Z,17.61
2024-05-09T18:30:48.374Z,17.54
2024-05-09T18:33:15.788Z,17.43
2024-05-09T18:35:46.106Z,17.34
2024-05-09T18:38:13.264Z,17.22
2024-05-09T18:40:45.007Z,17.12
2024-05-09T18:43:14.342Z,17.05
2024-05-09T18:45:44.521Z,16.96
2024-05-09T18:48:15.308Z,16.88
2024-05-09T18:50:45.275Z,16.79
2024-05-09T18:53:13.430Z,16.68
2024-05-09T18:55:43.727Z,16.57
2024-05-09T18:58:11.236Z,16.45
2024-05-09T19:00:44.032Z,16.29
2024-05-09T19:03:16.002Z,16.13
2024-05-09T19:05:46.559Z,15.97
2024-05-09T19:08:14.925Z,15.83
2024-05-09T19:10:45.358Z,15.73
2024-05-09T19:13:14.504Z,15.68
2024-05-09T19:15:45.158Z,15.63
2024-05-09T19:18:15.754Z,15.54
2024-05-09T19:20:45.668Z,15.46
2024-05-09T19:23:12.822Z,15.36
2024-05-09T19:25:42.596Z,15.29
2024-05-09T19:28:09.735Z,15.18
2024-05-09T19:30:42.082Z,15.13
2024-05-09T19:33:12.984Z,15.07
2024-05-09T19:35:46.194Z,15.04
2024-05-09T19:38:13.313Z,14.99
2024-05-09T19:40:43.046Z,14.91
2024-05-09T19:43:11.060Z,14.83
2024-05-09T19:45:40.922Z,14.74
2024-05-09T19:48:11.221Z,14.66
2024-05-09T19:50:43.146Z,14.59
2024-05-09T19:53:17.363Z,14.50
2024-05-09T19:55:44.345Z,14.42
2024-05-09T19:58:14.259Z,14.37
2024-05-09T20:00:43.246Z,14.32
2024-05-09T20:03:15.346Z,14.27
2024-05-09T20:05:45.344Z,14.23
2024-05-09T20:08:18.591Z,14.19
2024-05-09T20:10:45.646Z,14.12
2024-05-09T20:13:16.697Z,14.06
2024-05-09T20:15:43.938Z,13.98
2024-05-09T20:18:14.088Z,13.91
2024-05-09T20:20:43.627Z,13.80
2024-05-09T20:23:15.044Z,13.74
2024-05-09T20:25:47.380Z,13.69
2024-05-09T20:28:14.534Z,13.63
2024-05-09T20:30:44.577Z,13.60
2024-05-09T20:33:12.684Z,13.57
2024-05-09T20:35:42.515Z,13.54
2024-05-09T20:38:09.514Z,13.46
2024-05-09T20:40:39.965Z,13.42
2024-05-09T20:43:10.784Z,13.38
2024-05-09T20:45:41.096Z,13.32
2024-05-09T20:48:09.763Z,13.24
2024-05-09T20:50:41.958Z,13.16
2024-05-09T20:53:11.214Z,13.11
2024-05-09T20:55:41.204Z,13.06
2024-05-09T20:58:11.244Z,13.03
2024-05-09T21:00:44.208Z,12.98
2024-05-09T21:03:14.479Z,12.91
2024-05-09T21:05:45.883Z,12.83
2024-05-09T21:08:13.343Z,12.76
2024-05-09T21:10:43.260Z,12.67
2024-05-09T21:13:13.222Z,12.59
2024-05-09T21:15:43.042Z,12.51
2024-05-09T21:18:10.160Z,12.44
2024-05-09T21:20:39.809Z,12.37
2024-05-09T21:23:06.888Z,12.30
2024-05-09T21:25:36.783Z,12.24
2024-05-09T21:28:04.457Z,12.14
2024-05-09T21:30:41.801Z,12.07
2024-05-09T21:33:12.880Z,11.98
2024-05-09T21:35:44.871Z,11.91
2024-05-09T21:38:14.034Z,11.83
2024-05-09T21:40:44.961Z,11.77
2024-05-09T21:43:12.517Z,11.70
2024-05-09T21:45:44.890Z,11.61
2024-05-09T21:48:13.015Z,11.54
2024-05-09T21:50:43.052Z,11.45
2024-05-09T21:53:11.148Z,11.39
2024-05-09T21:55:40.922Z,11.31
2024-05-09T21:58:08.120Z,11.26
2024-05-09T22:00:39.391Z,11.20
2024-05-09T22:06:38.946Z,11.07
2024-05-09T22:09:05.998Z,11.03
2024-05-09T22:11:35.636Z,10.99
2024-05-09T22:14:02.662Z,10.95
2024-05-09T22:16:32.330Z,10.94
2024-05-09T22:18:59.396Z,10.91
2024-05-09T22:21:29.195Z,10.88
2024-05-09T22:23:58.849Z,10.83
2024-05-09T22:26:28.502Z,10.81
2024-05-09T22:28:55.605Z,10.74
2024-05-09T22:31:25.483Z,10.70
2024-05-09T22:33:52.899Z,10.63
2024-05-09T22:36:22.713Z,10.60
2024-05-09T22:38:49.661Z,10.57
2024-05-09T22:41:21.871Z,10.54
2024-05-09T22:43:48.885Z,10.51
2024-05-09T22:46:18.586Z,10.50
2024-05-09T22:48:45.754Z,10.48
2024-05-09T22:51:15.588Z,10.44
2024-05-09T22:53:42.555Z,10.40
2024-05-09T22:56:13.834Z,10.36
2024-05-09T22:58:43.497Z,10.31
2024-05-09T23:01:17.355Z,10.27
2024-05-09T23:03:44.811Z,10.23
2024-05-09T23:06:14.526Z,10.19
2024-05-09T23:08:41.523Z,10.17
2024-05-09T23:11:12.586Z,10.15
2024-05-09T23:13:39.589Z,10.14
2024-05-09T23:16:12.968Z,10.12
2024-05-09T23:18:40.360Z,10.08
2024-05-09T23:21:10.171Z,10.04
2024-05-09T23:23:37.180Z,10.00
2024-05-09T23:26:07.257Z,9.95
2024-05-09T23:28:34.346Z,9.93
2024-05-09T23:31:03.970Z,9.91
2024-05-09T23:33:33.772Z,9.89
2024-05-09T23:36:03.472Z,9.86
2024-05-09T23:38:30.428Z,9.83
2024-05-09T23:41:00.148Z,9.78
2024-05-09T23:43:27.368Z,9.78
2024-05-09T23:45:57.183Z,9.75
2024-05-09T23:48:24.343Z,9.74
2024-05-09T23:50:56.650Z,9.71
2024-05-09T23:53:23.675Z,9.65
2024-05-09T23:55:53.296Z,9.59
2024-05-09T23:58:20.374Z,9.53
